createdAt,value
2023-02-23T00:01:52.135Z,100349.63
2023-02-23T00:04:18.871Z,100345.25
2023-02-23T00:06:45.752Z,100357.91
2023-02-23T00:09:23.029Z,100346.56
2023-02-23T00:11:55.471Z,100353.19
2023-02-23T00:14:31.299Z,100347.38
2023-02-23T00:16:59.922Z,100351.25
2023-02-23T00:19:26.846Z,100353.75
2023-02-23T00:21:54.398Z,100347.38
2023-02-23T00:24:21.415Z,100347.38
2023-02-23T00:26:51.181Z,100349.63
2023-02-23T00:29:20.703Z,100345.75
2023-02-23T00:31:48.145Z,100344.94
2023-02-23T00:34:16.650Z,100348.50
2023-02-23T00:36:43.411Z,100342.97
2023-02-23T00:39:21.818Z,100342.47
2023-02-23T00:41:49.889Z,100346.06
2023-02-23T00:44:16.941Z,100346.34
2023-02-23T00:46:45.317Z,100341.34
2023-02-23T00:49:13.299Z,100338.56
2023-02-23T00:51:41.408Z,100339.41
2023-02-23T00:54:10.442Z,100342.97
2023-02-23T00:56:39.086Z,100336.34
2023-02-23T00:59:06.854Z,100341.06
2023-02-23T01:01:34.036Z,100340.22
2023-02-23T01:04:02.065Z,100344.94
2023-02-23T01:06:30.849Z,100342.97
2023-02-23T01:08:57.947Z,100344.09
2023-02-23T01:11:31.165Z,100345.75
2023-02-23T01:13:59.610Z,100352.38
2023-02-23T01:16:29.356Z,100339.19
2023-02-23T01:18:58.871Z,100348.28
2023-02-23T01:21:27.796Z,100350.75
2023-02-23T01:23:55.075Z,100346.84
2023-02-23T01:26:25.206Z,100342.47
2023-02-23T01:29:00.731Z,100345.75
2023-02-23T01:31:29.194Z,100349.63
2023-02-23T01:33:58.871Z,100351.25
2023-02-23T01:36:26.644Z,100350.75
2023-02-23T01:38:57.067Z,100342.97
2023-02-23T01:41:25.014Z,100346.84
2023-02-23T01:44:13.721Z,100350.16
2023-02-23T01:46:43.709Z,100350.97
2023-02-23T01:49:25.703Z,100348.22
2023-02-23T01:51:57.832Z,100350.97
2023-02-23T01:54:33.631Z,100345.75
2023-02-23T01:57:03.162Z,100342.97
2023-02-23T01:59:39.182Z,100344.63
2023-02-23T02:02:06.037Z,100339.41
2023-02-23T02:04:43.991Z,100341.06
2023-02-23T02:07:24.981Z,100344.63
2023-02-23T02:10:17.601Z,100336.66
2023-02-23T02:12:46.698Z,100337.47
2023-02-23T02:15:20.156Z,100339.13
2023-02-23T02:17:53.484Z,100341.06
2023-02-23T02:20:42.967Z,100341.88
2023-02-23T02:23:27.265Z,100342.97
2023-02-23T02:26:09.926Z,100344.09
2023-02-23T02:28:42.606Z,100338.28
2023-02-23T02:31:19.809Z,100344.94
2023-02-23T02:34:11.923Z,100341.06
2023-02-23T02:37:17.130Z,100340.72
2023-02-23T02:39:46.713Z,100341.56
2023-02-23T02:42:21.897Z,100340.22
2023-02-23T02:45:14.310Z,100340.22
2023-02-23T02:48:03.621Z,100337.47
2023-02-23T02:50:56.720Z,100334.72
2023-02-23T02:53:41.769Z,100334.72
2023-02-23T02:56:11.279Z,100334.41
2023-02-23T02:58:39.068Z,100334.72
2023-02-23T03:01:30.950Z,100331.94
2023-02-23T03:04:18.399Z,100333.06
2023-02-23T03:07:18.251Z,100340.22
2023-02-23T03:10:21.418Z,100333.06
2023-02-23T03:13:24.698Z,100330.63
2023-02-23T03:16:30.495Z,100330.00
2023-02-23T03:19:32.066Z,100337.47
2023-02-23T03:22:32.426Z,100335.81
2023-02-23T03:25:18.354Z,100334.72
2023-02-23T03:28:16.219Z,100326.44
2023-02-23T03:31:31.728Z,100338.56
2023-02-23T03:34:33.548Z,100340.22
2023-02-23T03:37:32.615Z,100341.88
2023-02-23T03:40:37.481Z,100335.53
2023-02-23T03:43:30.033Z,100340.22
2023-02-23T03:46:17.147Z,100343.31
2023-02-23T03:49:05.668Z,100344.09
2023-02-23T03:51:55.522Z,100347.38
2023-02-23T03:54:49.337Z,100344.63
2023-02-23T03:57:39.202Z,100349.09
2023-02-23T04:00:30.120Z,100346.16
2023-02-23T04:03:18.338Z,100349.22
2023-02-23T04:06:04.061Z,100360.03
2023-02-23T04:08:54.888Z,100351.75
2023-02-23T04:11:49.154Z,100353.75
2023-02-23T04:14:23.636Z,100354.03
2023-02-23T04:16:50.709Z,100356.78
2023-02-23T04:19:17.423Z,100362.31
2023-02-23T04:21:44.307Z,100364.56
2023-02-23T04:24:11.485Z,100362.91
2023-02-23T04:26:38.367Z,100367.59
2023-02-23T04:29:05.137Z,100368.44
2023-02-23T04:31:31.812Z,100361.28
2023-02-23T04:33:58.505Z,100371.50
2023-02-23T04:36:26.812Z,100371.50
2023-02-23T04:38:53.446Z,100377.31
2023-02-23T04:41:20.371Z,100370.69
2023-02-23T04:43:47.257Z,100371.50
2023-02-23T04:46:14.092Z,100377.81
2023-02-23T04:48:40.827Z,100368.22
2023-02-23T04:51:07.839Z,100374.06
2023-02-23T04:53:34.592Z,100372.94
2023-02-23T04:56:01.289Z,100371.28
2023-02-23T04:58:28.489Z,100372.94
2023-02-23T05:00:55.122Z,100371.28
2023-02-23T05:03:21.822Z,100371.28
2023-02-23T05:05:48.465Z,100383.16
2023-02-23T05:08:15.156Z,100376.00
2023-02-23T05:10:41.757Z,100377.94
2023-02-23T05:13:08.440Z,100383.44
2023-02-23T05:15:35.107Z,100379.06
2023-02-23T05:18:01.824Z,100386.22
2023-02-23T05:20:28.623Z,100380.69
2023-02-23T05:22:55.344Z,100383.75
2023-02-23T05:25:21.984Z,100388.47
2023-02-23T05:27:48.665Z,100381.84
2023-02-23T05:30:15.530Z,100388.47
2023-02-23T05:32:42.313Z,100385.69
2023-02-23T05:35:09.552Z,100391.22
2023-02-23T05:37:36.393Z,100387.63
2023-02-23T05:40:03.377Z,100381.28
2023-02-23T05:42:30.134Z,100374.16
2023-02-23T05:44:56.821Z,100377.44
2023-02-23T05:47:23.570Z,100385.38
2023-02-23T05:49:50.225Z,100386.81
2023-02-23T05:52:16.891Z,100381.28
2023-02-23T05:54:43.575Z,100379.69
2023-02-23T05:57:10.218Z,100387.97
2023-02-23T05:59:36.904Z,100387.97
2023-02-23T06:02:05.992Z,100385.19
2023-02-23T06:04:33.764Z,100395.41
2023-02-23T06:07:00.487Z,100395.41
2023-02-23T06:09:27.430Z,100397.84
2023-02-23T06:11:54.094Z,100404.50
2023-02-23T06:14:20.988Z,100395.41
2023-02-23T06:16:48.876Z,100400.94
2023-02-23T06:19:15.745Z,100411.97
2023-02-23T06:21:42.474Z,100415.53
2023-02-23T06:24:09.532Z,100412.78
2023-02-23T06:26:36.372Z,100415.84
2023-02-23T06:29:03.078Z,100417.47
2023-02-23T06:31:30.669Z,100411.13
2023-02-23T06:33:57.353Z,100418.59
2023-02-23T06:36:24.013Z,100411.13
2023-02-23T06:38:50.626Z,100415.00
2023-02-23T06:41:18.207Z,100417.78
2023-02-23T06:43:45.495Z,100423.28
2023-02-23T06:46:12.421Z,100420.53
2023-02-23T06:48:39.417Z,100423.28
2023-02-23T06:51:06.275Z,100437.91
2023-02-23T06:53:33.738Z,100431.56
2023-02-23T06:56:00.516Z,100441.50
2023-02-23T06:58:28.369Z,100446.50
2023-02-23T07:00:59.412Z,100450.38
2023-02-23T07:03:26.413Z,100450.38
2023-02-23T07:05:54.286Z,100456.41
2023-02-23T07:08:21.011Z,100453.94
2023-02-23T07:10:47.721Z,100462.22
2023-02-23T07:13:14.595Z,100459.47
2023-02-23T07:15:42.319Z,100459.16
2023-02-23T07:18:08.996Z,100468.56
2023-02-23T07:20:35.732Z,100467.75
2023-02-23T07:23:02.500Z,100472.44
2023-02-23T07:25:30.029Z,100477.97
2023-02-23T07:27:56.763Z,100476.31
2023-02-23T07:30:26.331Z,100477.44
2023-02-23T07:32:54.093Z,100484.59
2023-02-23T07:35:21.034Z,100487.34
2023-02-23T07:37:48.019Z,100492.25
2023-02-23T07:40:15.010Z,100493.41
2023-02-23T07:42:41.904Z,100494.50
2023-02-23T07:45:10.332Z,100490.94
2023-02-23T07:47:37.569Z,100489.00
2023-02-23T07:50:09.805Z,100487.34
2023-02-23T07:52:44.546Z,100493.69
2023-02-23T07:55:11.908Z,100500.03
2023-02-23T07:57:39.528Z,100503.91
2023-02-23T08:00:07.258Z,100507.81
2023-02-23T08:02:39.896Z,100503.91
2023-02-23T08:05:07.110Z,100506.66
2023-02-23T08:07:34.001Z,100513.00
2023-02-23T08:10:00.820Z,100520.44
2023-02-23T08:12:27.469Z,100519.66
2023-02-23T08:14:54.380Z,100518.84
2023-02-23T08:17:21.434Z,100530.69
2023-02-23T08:19:48.780Z,100523.22
2023-02-23T08:22:15.754Z,100527.94
2023-02-23T08:24:42.494Z,100525.19
2023-02-23T08:27:09.354Z,100527.13
2023-02-23T08:29:36.051Z,100534.25
2023-02-23T08:32:04.165Z,100535.38
2023-02-23T08:34:31.452Z,100538.16
2023-02-23T08:36:58.122Z,100542.53
2023-02-23T08:39:24.919Z,100547.25
2023-02-23T08:41:52.562Z,100546.44
2023-02-23T08:44:19.439Z,100554.69
2023-02-23T08:46:46.378Z,100545.59
2023-02-23T08:49:13.215Z,100555.81
2023-02-23T08:51:40.911Z,100551.94
2023-02-23T08:54:14.260Z,100558.28
2023-02-23T08:56:42.151Z,100567.66
2023-02-23T08:59:09.696Z,100559.69
2023-02-23T09:01:37.183Z,100559.69
2023-02-23T09:04:05.840Z,100563.25
2023-02-23T09:06:35.219Z,100566.84
2023-02-23T09:09:01.889Z,100559.69
2023-02-23T09:11:28.602Z,100567.97
2023-02-23T09:13:55.489Z,100570.72
2023-02-23T09:16:22.187Z,100568.50
2023-02-23T09:18:49.092Z,100572.38
2023-02-23T09:21:22.396Z,100573.47
2023-02-23T09:23:51.302Z,100578.72
2023-02-23T09:26:19.551Z,100579.00
2023-02-23T09:28:46.877Z,100584.22
2023-02-23T09:31:17.142Z,100592.00
2023-02-23T09:33:44.099Z,100592.78
2023-02-23T09:36:16.603Z,100590.03
2023-02-23T09:38:44.875Z,100598.31
2023-02-23T09:41:30.211Z,100601.06
2023-02-23T09:44:15.733Z,100609.34
2023-02-23T09:47:10.261Z,100608.81
2023-02-23T09:49:43.143Z,100613.22
2023-02-23T09:52:20.147Z,100617.63
2023-02-23T09:54:47.548Z,100621.50
2023-02-23T09:57:24.289Z,100618.75
2023-02-23T09:59:51.029Z,100620.38
2023-02-23T10:02:50.117Z,100633.66
2023-02-23T10:05:17.147Z,100630.63
2023-02-23T10:07:52.753Z,100629.78
2023-02-23T10:10:25.296Z,100632.53
2023-02-23T10:13:32.696Z,100628.66
2023-02-23T10:16:30.593Z,100632.53
2023-02-23T10:19:15.304Z,100640.81
2023-02-23T10:21:46.610Z,100644.69
2023-02-23T10:24:20.894Z,100641.94
2023-02-23T10:27:02.630Z,100647.44
2023-02-23T10:29:34.637Z,100640.81
2023-02-23T10:32:08.142Z,100643.59
2023-02-23T10:34:36.808Z,100636.72
2023-02-23T10:37:06.695Z,100643.88
2023-02-23T10:39:34.552Z,100643.59
2023-02-23T10:42:05.972Z,100647.97
2023-02-23T10:44:32.976Z,100647.44
2023-02-23T10:47:11.460Z,100654.91
2023-02-23T10:49:53.307Z,100655.72
2023-02-23T10:52:45.769Z,100651.84
2023-02-23T10:55:24.638Z,100649.09
2023-02-23T10:58:16.940Z,100656.25
2023-02-23T11:01:04.527Z,100659.00
2023-02-23T11:03:57.633Z,100659.81
2023-02-23T11:06:36.247Z,100655.13
2023-02-23T11:09:24.778Z,100652.69
2023-02-23T11:12:21.838Z,100655.72
2023-02-23T11:14:54.205Z,100658.19
2023-02-23T11:17:34.187Z,100652.69
2023-02-23T11:20:19.008Z,100649.09
2023-02-23T11:22:46.102Z,100651.84
2023-02-23T11:25:18.959Z,100645.19
2023-02-23T11:27:53.121Z,100639.69
2023-02-23T11:30:24.561Z,100642.44
2023-02-23T11:33:09.526Z,100646.34
2023-02-23T11:35:37.957Z,100647.97
2023-02-23T11:38:15.393Z,100646.34
2023-02-23T11:40:42.336Z,100647.97
2023-02-23T11:43:16.556Z,100649.09
2023-02-23T11:45:52.008Z,100636.13
2023-02-23T11:48:27.667Z,100640.81
2023-02-23T11:50:56.012Z,100637.75
2023-02-23T11:53:31.605Z,100642.44
2023-02-23T11:56:08.358Z,100635.31
2023-02-23T11:58:45.281Z,100636.13
2023-02-23T12:01:20.987Z,100639.69
2023-02-23T12:03:57.113Z,100629.47
2023-02-23T12:06:37.702Z,100623.66
2023-02-23T12:09:26.524Z,100616.50
2023-02-23T12:12:16.317Z,100613.47
2023-02-23T12:14:52.052Z,100613.47
2023-02-23T12:17:29.582Z,100611.22
2023-02-23T12:20:04.373Z,100614.25
2023-02-23T12:22:46.550Z,100612.63
2023-02-23T12:25:33.109Z,100611.50
2023-02-23T12:28:18.236Z,100623.09
2023-02-23T12:30:50.562Z,100624.69
2023-02-23T12:33:48.605Z,100621.44
2023-02-23T12:36:45.550Z,100626.94
2023-02-23T12:39:25.339Z,100630.22
2023-02-23T12:42:00.101Z,100630.53
2023-02-23T12:44:38.758Z,100628.59
2023-02-23T12:47:20.370Z,100625.84
2023-02-23T12:50:07.356Z,100621.44
2023-02-23T12:52:37.196Z,100623.09
2023-02-23T12:55:09.651Z,100616.72
2023-02-23T12:57:58.663Z,100612.88
2023-02-23T13:00:48.047Z,100619.50
2023-02-23T13:03:24.952Z,100617.56
2023-02-23T13:06:11.662Z,100612.88
2023-02-23T13:09:13.137Z,100606.53
2023-02-23T13:11:47.192Z,100613.66
2023-02-23T13:14:50.963Z,100616.41
2023-02-23T13:17:37.983Z,100618.38
2023-02-23T13:20:31.032Z,100619.19
2023-02-23T13:23:00.564Z,100608.97
2023-02-23T13:25:34.077Z,100609.78
2023-02-23T13:28:02.043Z,100619.19
2023-02-23T13:30:37.063Z,100622.47
2023-02-23T13:33:15.912Z,100623.59
2023-02-23T13:35:43.108Z,100616.97
2023-02-23T13:38:39.214Z,100620.84
2023-02-23T13:41:33.427Z,100620.84
2023-02-23T13:44:28.987Z,100612.56
2023-02-23T13:47:27.971Z,100622.75
2023-02-23T13:50:17.726Z,100624.69
2023-02-23T13:52:47.050Z,100617.25
2023-02-23T13:55:26.185Z,100627.47
2023-02-23T13:57:54.006Z,100620.84
2023-02-23T14:00:22.536Z,100616.13
2023-02-23T14:02:50.807Z,100631.88
2023-02-23T14:05:25.006Z,100633.53
2023-02-23T14:07:59.036Z,100633.53
2023-02-23T14:10:29.532Z,100639.03
2023-02-23T14:13:14.596Z,100639.03
2023-02-23T14:15:44.373Z,100644.56
2023-02-23T14:18:20.977Z,100636.56
2023-02-23T14:21:05.318Z,100636.28
2023-02-23T14:23:54.147Z,100635.44
2023-02-23T14:26:29.744Z,100635.72
2023-02-23T14:29:27.955Z,100643.72
2023-02-23T14:31:54.882Z,100645.66
2023-02-23T14:34:25.392Z,100639.84
2023-02-23T14:36:56.548Z,100635.72
2023-02-23T14:39:27.539Z,100649.53
2023-02-23T14:41:59.902Z,100647.31
2023-02-23T14:44:32.330Z,100655.59
2023-02-23T14:47:14.164Z,100641.25
2023-02-23T14:49:49.196Z,100642.91
2023-02-23T14:52:25.185Z,100644.00
2023-02-23T14:54:52.893Z,100648.44
2023-02-23T14:57:25.707Z,100649.25
2023-02-23T15:00:01.126Z,100650.34
2023-02-23T15:02:30.937Z,100650.34
2023-02-23T15:04:57.985Z,100655.59
2023-02-23T15:07:33.775Z,100650.06
2023-02-23T15:10:02.863Z,100659.47
2023-02-23T15:12:35.416Z,100653.94
2023-02-23T15:15:08.019Z,100655.59
2023-02-23T15:17:35.053Z,100651.69
2023-02-23T15:20:17.699Z,100659.47
2023-02-23T15:22:52.252Z,100656.69
2023-02-23T15:25:23.993Z,100660.56
2023-02-23T15:27:51.922Z,100664.97
2023-02-23T15:30:30.960Z,100661.13
2023-02-23T15:33:00.766Z,100668.56
2023-02-23T15:35:28.715Z,100666.63
2023-02-23T15:38:07.673Z,100666.63
2023-02-23T15:40:43.372Z,100672.16
2023-02-23T15:43:11.499Z,100664.97
2023-02-23T15:45:50.778Z,100659.47
2023-02-23T15:48:22.715Z,100655.88
2023-02-23T15:50:58.480Z,100657.81
2023-02-23T15:53:40.795Z,100661.13
2023-02-23T15:56:20.110Z,100657.22
2023-02-23T15:58:57.370Z,100659.16
2023-02-23T16:01:29.334Z,100662.72
2023-02-23T16:04:13.839Z,100668.84
2023-02-23T16:07:06.646Z,100662.22
2023-02-23T16:09:38.559Z,100650.88
2023-02-23T16:12:08.006Z,100659.47
2023-02-23T16:15:15.316Z,100656.69
2023-02-23T16:17:48.587Z,100657.81
2023-02-23T16:20:29.191Z,100657.81
2023-02-23T16:22:58.082Z,100657.00
2023-02-23T16:25:27.831Z,100658.63
2023-02-23T16:28:01.390Z,100659.16
2023-02-23T16:30:43.313Z,100656.69
2023-02-23T16:33:24.484Z,100658.63
2023-02-23T16:36:04.936Z,100664.97
2023-02-23T16:38:42.274Z,100661.13
2023-02-23T16:41:21.430Z,100663.88
2023-02-23T16:43:50.179Z,100665.81
2023-02-23T16:46:18.361Z,100659.47
2023-02-23T16:48:45.361Z,100659.47
2023-02-23T16:51:17.874Z,100657.53
2023-02-23T16:53:45.290Z,100658.63
2023-02-23T16:56:18.213Z,100655.88
2023-02-23T16:58:51.015Z,100659.47
2023-02-23T17:01:19.014Z,100659.16
2023-02-23T17:04:03.888Z,100659.47
2023-02-23T17:06:30.668Z,100657.81
2023-02-23T17:08:58.453Z,100653.94
2023-02-23T17:11:26.014Z,100658.63
2023-02-23T17:13:52.704Z,100665.81
2023-02-23T17:16:20.004Z,100659.47
2023-02-23T17:18:46.813Z,100658.63
2023-02-23T17:21:23.650Z,100668.84
2023-02-23T17:23:52.229Z,100674.38
2023-02-23T17:26:24.836Z,100683.78
2023-02-23T17:28:52.129Z,100692.06
2023-02-23T17:31:20.426Z,100685.41
2023-02-23T17:33:48.196Z,100687.66
2023-02-23T17:36:17.128Z,100688.16
2023-02-23T17:38:47.110Z,100689.00
2023-02-23T17:41:17.337Z,100690.91
2023-02-23T17:43:44.430Z,100689.28
2023-02-23T17:46:12.670Z,100685.41
2023-02-23T17:48:40.819Z,100681.03
2023-02-23T17:51:12.034Z,100687.66
2023-02-23T17:53:40.162Z,100685.41
2023-02-23T17:56:07.621Z,100693.69
2023-02-23T17:58:35.114Z,100693.16
2023-02-23T18:01:03.881Z,100698.41
2023-02-23T18:03:32.929Z,100696.44
2023-02-23T18:06:02.136Z,100694.81
2023-02-23T18:08:29.153Z,100698.69
2023-02-23T18:10:56.623Z,100689.56
2023-02-23T18:13:24.942Z,100702.53
2023-02-23T18:15:55.059Z,100703.09
2023-02-23T18:18:24.208Z,100706.13
2023-02-23T18:20:56.490Z,100705.31
2023-02-23T18:23:25.480Z,100714.13
2023-02-23T18:25:52.386Z,100712.47
2023-02-23T18:28:19.266Z,100704.19
2023-02-23T18:30:46.574Z,100709.72
2023-02-23T18:33:13.847Z,100708.91
2023-02-23T18:35:44.968Z,100703.38
2023-02-23T18:38:14.162Z,100704.19
2023-02-23T18:40:41.702Z,100702.53
2023-02-23T18:43:09.029Z,100702.53
2023-02-23T18:45:35.802Z,100702.28
2023-02-23T18:48:02.718Z,100704.19
2023-02-23T18:50:29.586Z,100701.44
2023-02-23T18:52:58.996Z,100695.41
2023-02-23T18:55:25.753Z,100706.44
2023-02-23T18:57:52.852Z,100694.59
2023-02-23T19:00:20.561Z,100700.09
2023-02-23T19:02:48.015Z,100692.09
2023-02-23T19:05:18.117Z,100685.47
2023-02-23T19:07:45.760Z,100685.78
2023-02-23T19:10:14.849Z,100692.09
2023-02-23T19:12:41.617Z,100693.75
2023-02-23T19:15:09.273Z,100690.47
2023-02-23T19:17:47.444Z,100697.63
2023-02-23T19:20:14.486Z,100689.88
2023-02-23T19:22:41.751Z,100692.09
2023-02-23T19:25:14.248Z,100696.81
2023-02-23T19:27:41.899Z,100701.50
2023-02-23T19:30:10.174Z,100702.34
2023-02-23T19:32:39.773Z,100698.75
2023-02-23T19:35:09.304Z,100700.38
2023-02-23T19:37:36.063Z,100699.50
2023-02-23T19:40:03.829Z,100707.06
2023-02-23T19:42:32.691Z,100714.56
2023-02-23T19:44:59.806Z,100709.63
2023-02-23T19:47:26.556Z,100711.78
2023-02-23T19:49:54.911Z,100711.94
2023-02-23T19:52:23.350Z,100707.03
2023-02-23T19:54:50.316Z,100711.38
2023-02-23T19:57:17.216Z,100714.66
2023-02-23T19:59:44.035Z,100708.00
2023-02-23T20:02:11.312Z,100709.56
2023-02-23T20:04:38.350Z,100708.16
2023-02-23T20:07:04.996Z,100703.41
2023-02-23T20:09:31.697Z,100715.25
2023-02-23T20:11:58.423Z,100715.00
2023-02-23T20:14:25.146Z,100709.66
2023-02-23T20:16:51.902Z,100714.84
2023-02-23T20:19:19.722Z,100712.50
2023-02-23T20:21:46.398Z,100712.28
2023-02-23T20:24:13.373Z,100717.25
2023-02-23T20:26:40.038Z,100714.50
2023-02-23T20:29:10.942Z,100715.13
2023-02-23T20:31:41.904Z,100706.88
2023-02-23T20:34:12.244Z,100715.78
2023-02-23T20:36:39.992Z,100715.25
2023-02-23T20:39:07.266Z,100722.19
2023-02-23T20:41:33.992Z,100715.84
2023-02-23T20:44:01.231Z,100722.78
2023-02-23T20:46:30.957Z,100718.69
2023-02-23T20:48:59.229Z,100711.53
2023-02-23T20:51:26.634Z,100717.63
2023-02-23T20:53:53.247Z,100706.59
2023-02-23T20:56:22.112Z,100712.94
2023-02-23T20:58:49.116Z,100709.66
2023-02-23T21:01:20.377Z,100709.94
2023-02-23T21:03:47.809Z,100717.41
2023-02-23T21:06:16.090Z,100707.00
2023-02-23T21:08:42.721Z,100711.69
2023-02-23T21:11:09.463Z,100710.03
2023-02-23T21:13:36.303Z,100707.28
2023-02-23T21:16:03.544Z,100699.00
2023-02-23T21:18:31.340Z,100704.28
2023-02-23T21:21:09.708Z,100701.84
2023-02-23T21:23:44.906Z,100701.84
2023-02-23T21:26:16.064Z,100697.41
2023-02-23T21:28:46.387Z,100700.78
2023-02-23T21:31:14.502Z,100702.41
2023-02-23T21:33:43.107Z,100701.59
2023-02-23T21:36:11.151Z,100693.63
2023-02-23T21:38:40.198Z,100697.50
2023-02-23T21:41:07.997Z,100696.66
2023-02-23T21:43:36.353Z,100695.03
2023-02-23T21:46:14.664Z,100702.50
2023-02-23T21:48:43.041Z,100689.81
2023-02-23T21:51:13.057Z,100688.16
2023-02-23T21:53:40.976Z,100685.72
2023-02-23T21:56:21.203Z,100689.28
2023-02-23T21:58:50.672Z,100687.66
2023-02-23T22:01:22.224Z,100687.66
2023-02-23T22:03:49.460Z,100688.47
2023-02-23T22:06:21.368Z,100687.66
2023-02-23T22:08:51.818Z,100686.00
2023-02-23T22:11:22.096Z,100684.38
2023-02-23T22:13:54.402Z,100681.63
2023-02-23T22:16:22.390Z,100678.84
2023-02-23T22:18:50.544Z,100670.03
2023-02-23T22:21:19.198Z,100678.84
2023-02-23T22:23:50.209Z,100683.81
2023-02-23T22:26:17.881Z,100675.56
2023-02-23T22:28:45.037Z,100675.56
2023-02-23T22:31:13.796Z,100675.56
2023-02-23T22:33:43.135Z,100679.44
2023-02-23T22:36:18.083Z,100675.56
2023-02-23T22:38:45.670Z,100678.63
2023-02-23T22:41:13.158Z,100673.09
2023-02-23T22:43:41.848Z,100667.59
2023-02-23T22:46:09.543Z,100661.84
2023-02-23T22:48:36.416Z,100659.63
2023-02-23T22:51:03.699Z,100662.06
2023-02-23T22:53:31.600Z,100665.13
2023-02-23T22:55:59.624Z,100666.25
2023-02-23T22:58:26.831Z,100661.84
2023-02-23T23:01:04.873Z,100653.47
2023-02-23T23:03:41.974Z,100656.38
2023-02-23T23:06:11.410Z,100651.69
2023-02-23T23:08:42.940Z,100646.19
2023-02-23T23:11:15.594Z,100650.34
2023-02-23T23:13:57.609Z,100648.75
2023-02-23T23:16:32.299Z,100643.22
2023-02-23T23:19:07.870Z,100643.50
2023-02-23T23:21:35.995Z,100632.47
2023-02-23T23:24:08.087Z,100636.34
2023-02-23T23:26:39.663Z,100632.47
2023-02-23T23:29:10.171Z,100624.69
2023-02-23T23:31:38.734Z,100634.94
2023-02-23T23:34:11.552Z,100633.28
2023-02-23T23:36:49.128Z,100634.94
2023-02-23T23:39:18.337Z,100634.94
2023-02-23T23:41:48.902Z,100626.94
2023-02-23T23:44:18.669Z,100632.47
2023-02-23T23:46:46.741Z,100629.69
2023-02-23T23:49:16.516Z,100636.88
2023-02-23T23:51:45.998Z,100636.88
2023-02-23T23:54:14.386Z,100637.97
2023-02-23T23:56:41.752Z,100638.50
2023-02-23T23:59:11.500Z,100638.81
